Terminal Aerodrome Forecast
Issued by NWS

Home | Current Version | Previous Version | Text Only | Print | Product List | Glossary On
Versions: 1 2 3 4 5 6 7 8 9 10 11 12 13 14 15 16 17 18 19 20 21 22 23 24 25 26 27 28
000
FTAK31 PANC 151740
TAFASN
TAF
PASN 151740Z 1518/1618 32006KT 3SM -SHSN BR OVC025
      TEMPO 1518/1522 2SM -SN BR OVC015
     FM160900 33015G25KT 3SM -SHSN BLSN OVC010=

USA.gov is the U.S. government's official web portal to all federal, state and local government web resources and services.